createdAt,value
2023-01-23T03:59:43.709Z,1029.36
2023-01-23T04:00:43.598Z,1029.35
2023-01-23T04:01:43.591Z,1029.36
2023-01-23T04:02:43.601Z,1029.40
2023-01-23T04:03:43.117Z,1029.37
2023-01-23T04:04:43.092Z,1029.43
2023-01-23T04:05:43.098Z,1029.42
2023-01-23T04:06:43.150Z,1029.45
2023-01-23T04:07:43.183Z,1029.45
2023-01-23T04:08:43.099Z,1029.44
2023-01-23T04:09:43.087Z,1029.44
2023-01-23T04:10:41.529Z,1029.47
2023-01-23T04:11:41.530Z,1029.47
2023-01-23T04:12:43.168Z,1029.47
2023-01-23T04:13:41.539Z,1029.51
2023-01-23T04:14:41.507Z,1029.47
2023-01-23T04:15:41.646Z,1029.49
2023-01-23T04:16:43.161Z,1029.46
2023-01-23T04:17:42.622Z,1029.46
2023-01-23T04:18:41.537Z,1029.43
2023-01-23T04:19:41.505Z,1029.46
2023-01-23T04:20:41.500Z,1029.44
2023-01-23T04:21:41.473Z,1029.46
2023-01-23T04:22:43.149Z,1029.48
2023-01-23T04:23:41.465Z,1029.51
2023-01-23T04:24:41.462Z,1029.51
2023-01-23T04:25:41.456Z,1029.49
2023-01-23T04:26:41.457Z,1029.47
2023-01-23T04:27:42.614Z,1029.55
2023-01-23T04:28:42.475Z,1029.51
2023-01-23T04:29:42.443Z,1029.51
2023-01-23T04:30:42.599Z,1029.49
2023-01-23T04:31:42.758Z,1029.50
2023-01-23T04:32:42.457Z,1029.50
2023-01-23T04:33:42.428Z,1029.48
2023-01-23T04:34:42.414Z,1029.48
2023-01-23T04:35:43.127Z,1029.48
2023-01-23T04:36:41.401Z,1029.49
2023-01-23T04:37:42.394Z,1029.49
2023-01-23T04:38:42.642Z,1029.49
2023-01-23T04:39:42.639Z,1029.52
2023-01-23T04:40:41.391Z,1029.52
2023-01-23T04:41:43.123Z,1029.50
2023-01-23T04:42:42.377Z,1029.51
2023-01-23T04:43:43.141Z,1029.52
2023-01-23T04:44:42.377Z,1029.53
2023-01-23T04:45:43.180Z,1029.48
2023-01-23T04:46:43.114Z,1029.51
2023-01-23T04:47:43.216Z,1029.53
2023-01-23T04:48:43.172Z,1029.53
2023-01-23T04:49:43.122Z,1029.49
2023-01-23T04:50:43.132Z,1029.50
2023-01-23T04:51:43.158Z,1029.52
2023-01-23T04:52:41.343Z,1029.47
2023-01-23T04:53:41.330Z,1029.51
2023-01-23T04:54:42.641Z,1029.51
2023-01-23T04:55:41.313Z,1029.52
2023-01-23T04:56:42.335Z,1029.54
2023-01-23T04:57:41.327Z,1029.55
2023-01-23T04:58:41.330Z,1029.54
2023-01-23T04:59:42.647Z,1029.57
2023-01-23T05:00:43.128Z,1029.61
2023-01-23T05:01:43.123Z,1029.59
2023-01-23T05:02:43.159Z,1029.59
2023-01-23T05:03:43.246Z,1029.59
2023-01-23T05:04:43.178Z,1029.63
2023-01-23T05:05:43.145Z,1029.60
2023-01-23T05:06:43.150Z,1029.61
2023-01-23T05:07:43.134Z,1029.64
2023-01-23T05:08:43.141Z,1029.62
2023-01-23T05:09:43.163Z,1029.64
2023-01-23T05:10:43.139Z,1029.62
2023-01-23T05:11:43.129Z,1029.59
2023-01-23T05:12:43.154Z,1029.66
2023-01-23T05:13:43.141Z,1029.66
2023-01-23T05:14:42.664Z,1029.69
2023-01-23T05:15:41.238Z,1029.75
2023-01-23T05:16:42.224Z,1029.72
2023-01-23T05:17:42.651Z,1029.74
2023-01-23T05:18:42.205Z,1029.79
2023-01-23T05:19:42.778Z,1029.79
2023-01-23T05:20:42.206Z,1029.76
2023-01-23T05:21:43.171Z,1029.79
2023-01-23T05:22:42.194Z,1029.81
2023-01-23T05:23:42.216Z,1029.80
2023-01-23T05:24:42.225Z,1029.83
2023-01-23T05:25:42.187Z,1029.84
2023-01-23T05:26:43.160Z,1029.83
2023-01-23T05:27:42.169Z,1029.81
2023-01-23T05:28:42.170Z,1029.85
2023-01-23T05:29:42.178Z,1029.81
2023-01-23T05:30:42.328Z,1029.82
2023-01-23T05:31:42.712Z,1029.82
2023-01-23T05:32:42.650Z,1029.84
2023-01-23T05:33:42.680Z,1029.83
2023-01-23T05:34:42.661Z,1029.79
2023-01-23T05:35:42.789Z,1029.85
2023-01-23T05:36:42.696Z,1029.83
2023-01-23T05:37:42.663Z,1029.85
2023-01-23T05:38:42.657Z,1029.92
2023-01-23T05:39:42.730Z,1029.94
2023-01-23T05:40:42.691Z,1029.94
2023-01-23T05:41:42.681Z,1029.93
2023-01-23T05:42:42.666Z,1029.95
2023-01-23T05:43:42.667Z,1029.92
2023-01-23T05:44:42.675Z,1029.94
2023-01-23T05:45:42.668Z,1029.94
2023-01-23T05:46:42.700Z,1029.91
2023-01-23T05:47:42.673Z,1029.90
2023-01-23T05:48:42.710Z,1029.88
2023-01-23T05:49:42.721Z,1029.87
2023-01-23T05:50:41.084Z,1029.91
2023-01-23T05:51:42.823Z,1029.88
2023-01-23T05:52:42.190Z,1029.93
2023-01-23T05:53:41.060Z,1029.95
2023-01-23T05:54:41.055Z,1029.96
2023-01-23T05:55:41.070Z,1030.02
2023-01-23T05:56:41.049Z,1030.01
2023-01-23T05:57:42.203Z,1030.02
2023-01-23T05:58:41.041Z,1030.01
2023-01-23T05:59:41.042Z,1030.01
2023-01-23T06:00:42.195Z,1030.08
2023-01-23T06:01:41.017Z,1030.07
2023-01-23T06:02:42.764Z,1030.10
2023-01-23T06:03:42.093Z,1030.09
2023-01-23T06:04:42.028Z,1030.14
2023-01-23T06:05:41.996Z,1030.12
2023-01-23T06:06:42.025Z,1030.20
2023-01-23T06:07:42.327Z,1030.19
2023-01-23T06:08:41.989Z,1030.18
2023-01-23T06:09:41.999Z,1030.20
2023-01-23T06:10:41.985Z,1030.18
2023-01-23T06:11:42.690Z,1030.15
2023-01-23T06:12:41.971Z,1030.13
2023-01-23T06:13:42.696Z,1030.13
2023-01-23T06:14:41.962Z,1030.14
2023-01-23T06:15:42.729Z,1030.12
2023-01-23T06:16:42.700Z,1030.17
2023-01-23T06:17:42.783Z,1030.16
2023-01-23T06:18:42.709Z,1030.16
2023-01-23T06:19:42.697Z,1030.17
2023-01-23T06:20:42.705Z,1030.15
2023-01-23T06:21:42.690Z,1030.15
2023-01-23T06:22:42.701Z,1030.13
2023-01-23T06:23:42.838Z,1030.14
2023-01-23T06:24:42.711Z,1030.15
2023-01-23T06:25:42.712Z,1030.17
2023-01-23T06:26:42.692Z,1030.17
2023-01-23T06:27:42.696Z,1030.22
2023-01-23T06:28:42.741Z,1030.22
2023-01-23T06:29:40.890Z,1030.23
2023-01-23T06:30:40.912Z,1030.22
2023-01-23T06:31:40.963Z,1030.25
2023-01-23T06:32:41.924Z,1030.26
2023-01-23T06:33:42.722Z,1030.28
2023-01-23T06:34:42.699Z,1030.30
2023-01-23T06:35:42.717Z,1030.28
2023-01-23T06:36:42.728Z,1030.30
2023-01-23T06:37:42.705Z,1030.32
2023-01-23T06:38:42.721Z,1030.35
2023-01-23T06:39:42.835Z,1030.35
2023-01-23T06:40:42.745Z,1030.36
2023-01-23T06:41:42.755Z,1030.36
2023-01-23T06:42:42.722Z,1030.37
2023-01-23T06:43:42.731Z,1030.42
2023-01-23T06:44:41.837Z,1030.39
2023-01-23T06:45:42.728Z,1030.41
2023-01-23T06:46:42.729Z,1030.46
2023-01-23T06:47:42.712Z,1030.45
2023-01-23T06:48:42.742Z,1030.45
2023-01-23T06:49:42.710Z,1030.47
2023-01-23T06:50:43.917Z,1030.48
2023-01-23T06:51:42.729Z,1030.49
2023-01-23T06:52:42.730Z,1030.49
2023-01-23T06:53:42.945Z,1030.53
2023-01-23T06:54:40.793Z,1030.50
2023-01-23T06:55:42.033Z,1030.55
2023-01-23T06:56:40.786Z,1030.57
2023-01-23T06:57:42.743Z,1030.57
2023-01-23T06:58:40.780Z,1030.59
2023-01-23T06:59:41.806Z,1030.59
2023-01-23T07:00:41.194Z,1030.60
2023-01-23T07:01:40.771Z,1030.57
2023-01-23T07:02:40.777Z,1030.58
2023-01-23T07:03:42.801Z,1030.61
2023-01-23T07:04:40.742Z,1030.58
2023-01-23T07:05:42.256Z,1030.59
2023-01-23T07:06:42.236Z,1030.62
2023-01-23T07:07:40.759Z,1030.62
2023-01-23T07:08:42.251Z,1030.61
2023-01-23T07:09:42.307Z,1030.63
2023-01-23T07:10:41.718Z,1030.63
2023-01-23T07:11:43.187Z,1030.66
2023-01-23T07:12:42.244Z,1030.67
2023-01-23T07:13:42.246Z,1030.68
2023-01-23T07:14:42.252Z,1030.65
2023-01-23T07:15:42.233Z,1030.65
2023-01-23T07:16:42.261Z,1030.66
2023-01-23T07:17:42.352Z,1030.65
2023-01-23T07:18:40.685Z,1030.63
2023-01-23T07:19:42.272Z,1030.67
2023-01-23T07:20:40.669Z,1030.67
2023-01-23T07:21:40.661Z,1030.68
2023-01-23T07:23:40.649Z,1030.71
2023-01-23T07:24:42.254Z,1030.72
2023-01-23T07:25:40.644Z,1030.74
2023-01-23T07:26:40.634Z,1030.77
2023-01-23T07:28:40.732Z,1030.78
2023-01-23T07:30:42.292Z,1030.77
2023-01-23T07:31:40.673Z,1030.77
2023-01-23T07:32:40.618Z,1030.82
2023-01-23T07:33:40.938Z,1030.80
2023-01-23T07:34:42.716Z,1030.82
2023-01-23T07:35:41.372Z,1030.82
2023-01-23T07:36:41.606Z,1030.84
2023-01-23T07:37:40.601Z,1030.85
2023-01-23T07:38:42.271Z,1030.87
2023-01-23T07:40:41.585Z,1030.87
2023-01-23T07:41:41.609Z,1030.86
2023-01-23T07:42:42.280Z,1030.86
2023-01-23T07:43:41.565Z,1030.94
2023-01-23T07:44:42.383Z,1030.92
2023-01-23T07:46:40.597Z,1030.97
2023-01-23T07:47:44.144Z,1030.95
2023-01-23T07:49:43.328Z,1031.03
2023-01-23T07:50:41.548Z,1031.00
2023-01-23T07:51:40.537Z,1030.99
2023-01-23T07:52:40.534Z,1031.03
2023-01-23T07:53:40.516Z,1031.02
2023-01-23T07:54:40.568Z,1030.98
2023-01-23T07:55:41.790Z,1030.97
2023-01-23T07:57:40.515Z,1030.99
2023-01-23T07:58:40.521Z,1031.02
2023-01-23T07:59:42.830Z,1031.03
2023-01-23T08:00:40.637Z,1030.98
2023-01-23T08:01:40.543Z,1030.98
2023-01-23T08:02:42.299Z,1030.96
2023-01-23T08:03:40.518Z,1031.01
2023-01-23T08:04:40.521Z,1030.99
2023-01-23T08:05:42.839Z,1030.98
2023-01-23T08:07:42.307Z,1031.01
2023-01-23T08:08:42.301Z,1031.02
2023-01-23T08:09:42.339Z,1031.05
2023-01-23T08:11:42.392Z,1031.07
2023-01-23T08:12:42.321Z,1031.08
2023-01-23T08:13:42.314Z,1031.07
2023-01-23T08:14:42.317Z,1031.11
2023-01-23T08:15:42.328Z,1031.12
2023-01-23T08:16:42.500Z,1031.11
2023-01-23T08:17:42.359Z,1031.09
2023-01-23T08:19:42.305Z,1031.08
2023-01-23T08:20:42.377Z,1031.09
2023-01-23T08:21:42.338Z,1031.13
2023-01-23T08:22:40.444Z,1031.08
2023-01-23T08:23:41.408Z,1031.11
2023-01-23T08:25:42.812Z,1031.07
2023-01-23T08:26:40.373Z,1031.14
2023-01-23T08:27:40.374Z,1031.14
2023-01-23T08:28:40.367Z,1031.12
2023-01-23T08:29:41.387Z,1031.15
2023-01-23T08:30:41.161Z,1031.16
2023-01-23T08:31:42.512Z,1031.10
2023-01-23T08:32:40.644Z,1031.09
2023-01-23T08:33:43.867Z,1031.12
2023-01-23T08:34:41.202Z,1031.12
2023-01-23T08:35:42.765Z,1031.17
2023-01-23T08:36:40.764Z,1031.15
2023-01-23T08:37:40.331Z,1031.22
2023-01-23T08:38:40.504Z,1031.23
2023-01-23T08:39:40.577Z,1031.28
2023-01-23T08:40:40.334Z,1031.30
2023-01-23T08:41:42.135Z,1031.34
2023-01-23T08:42:40.349Z,1031.36
2023-01-23T08:43:40.300Z,1031.34
2023-01-23T08:44:40.312Z,1031.33
2023-01-23T08:45:42.229Z,1031.34
2023-01-23T08:46:40.278Z,1031.35
2023-01-23T08:47:40.301Z,1031.42
2023-01-23T08:48:41.946Z,1031.40
2023-01-23T08:49:40.283Z,1031.37
2023-01-23T08:50:42.376Z,1031.41
2023-01-23T08:51:42.145Z,1031.44
2023-01-23T08:52:40.302Z,1031.44
2023-01-23T08:53:42.366Z,1031.45
2023-01-23T08:54:40.293Z,1031.44
2023-01-23T08:55:40.447Z,1031.43
2023-01-23T08:56:40.260Z,1031.45
2023-01-23T08:57:41.328Z,1031.45
2023-01-23T08:58:40.235Z,1031.45
2023-01-23T08:59:40.231Z,1031.47
2023-01-23T09:00:40.270Z,1031.51
2023-01-23T09:01:41.350Z,1031.48
2023-01-23T09:02:41.255Z,1031.49
2023-01-23T09:03:41.236Z,1031.49
2023-01-23T09:04:42.950Z,1031.52
2023-01-23T09:05:41.249Z,1031.51
2023-01-23T09:06:40.194Z,1031.51
2023-01-23T09:07:41.854Z,1031.47
2023-01-23T09:08:40.190Z,1031.46
2023-01-23T09:09:41.834Z,1031.49
2023-01-23T09:10:40.197Z,1031.47
2023-01-23T09:11:41.857Z,1031.48
2023-01-23T09:12:40.182Z,1031.47
2023-01-23T09:13:41.852Z,1031.46
2023-01-23T09:14:41.163Z,1031.45
2023-01-23T09:15:41.840Z,1031.48
2023-01-23T09:16:41.391Z,1031.51
2023-01-23T09:19:40.139Z,1031.52
2023-01-23T09:20:41.956Z,1031.46
2023-01-23T09:21:41.848Z,1031.46
2023-01-23T09:22:41.838Z,1031.41
2023-01-23T09:23:41.866Z,1031.42
2023-01-23T09:24:41.842Z,1031.42
2023-01-23T09:25:41.848Z,1031.40
2023-01-23T09:26:40.123Z,1031.43
2023-01-23T09:27:41.880Z,1031.42
2023-01-23T09:28:41.860Z,1031.45
2023-01-23T09:29:41.866Z,1031.41
2023-01-23T09:30:41.869Z,1031.44
2023-01-23T09:31:41.882Z,1031.43
2023-01-23T09:32:41.902Z,1031.45
2023-01-23T09:33:41.866Z,1031.50
2023-01-23T09:34:41.901Z,1031.45
2023-01-23T09:35:41.095Z,1031.47
2023-01-23T09:36:43.611Z,1031.46
2023-01-23T09:37:41.459Z,1031.47
2023-01-23T09:38:40.075Z,1031.52
2023-01-23T09:39:40.080Z,1031.56
2023-01-23T09:40:41.366Z,1031.61
2023-01-23T09:41:41.892Z,1031.65
2023-01-23T09:42:41.949Z,1031.67
2023-01-23T09:43:41.860Z,1031.69
2023-01-23T09:44:41.853Z,1031.72
2023-01-23T09:45:40.201Z,1031.77
2023-01-23T09:46:41.868Z,1031.76
2023-01-23T09:47:41.876Z,1031.74
2023-01-23T09:48:41.878Z,1031.78
2023-01-23T09:49:41.883Z,1031.73
2023-01-23T09:50:41.890Z,1031.70
2023-01-23T09:51:41.872Z,1031.75
2023-01-23T09:52:41.508Z,1031.76
2023-01-23T09:53:41.928Z,1031.74
2023-01-23T09:54:41.867Z,1031.76
2023-01-23T09:55:41.876Z,1031.80
2023-01-23T09:56:41.884Z,1031.76
2023-01-23T09:57:41.870Z,1031.76
2023-01-23T09:58:41.874Z,1031.76
2023-01-23T09:59:58.332Z,1031.79
2023-01-23T10:00:41.874Z,1031.81
2023-01-23T10:01:41.948Z,1031.78
2023-01-23T10:02:40.033Z,1031.77
2023-01-23T10:13:56.081Z,1031.73
2023-01-23T10:14:57.898Z,1031.77
2023-01-23T10:15:57.193Z,1031.74
2023-01-23T10:16:57.849Z,1031.71
2023-01-23T10:17:55.969Z,1031.74
2023-01-23T10:18:55.931Z,1031.73
2023-01-23T10:19:58.594Z,1031.72
2023-01-23T10:20:57.808Z,1031.73
2023-01-23T10:22:58.806Z,1031.71
2023-01-23T10:23:57.835Z,1031.72
2023-01-23T10:24:55.923Z,1031.72
2023-01-23T10:25:55.906Z,1031.72
2023-01-23T10:26:55.967Z,1031.69
2023-01-23T10:27:55.904Z,1031.69
2023-01-23T10:28:57.928Z,1031.74
2023-01-23T10:29:55.872Z,1031.69
2023-01-23T10:30:56.046Z,1031.70
2023-01-23T10:31:56.109Z,1031.71
2023-01-23T10:32:55.897Z,1031.68
2023-01-23T10:33:58.157Z,1031.63
2023-01-23T10:34:56.008Z,1031.62
2023-01-23T10:35:57.856Z,1031.57
2023-01-23T10:36:56.682Z,1031.60
2023-01-23T10:37:57.891Z,1031.60
2023-01-23T10:38:56.545Z,1031.61
2023-01-23T10:39:55.852Z,1031.61
2023-01-23T10:40:57.340Z,1031.63
2023-01-23T10:42:01.940Z,1031.64
2023-01-23T10:42:55.828Z,1031.66
2023-01-23T10:43:57.367Z,1031.66
2023-01-23T10:44:55.979Z,1031.70
2023-01-23T10:45:56.907Z,1031.68
2023-01-23T10:46:55.998Z,1031.68
2023-01-23T10:47:57.400Z,1031.64
2023-01-23T10:48:57.380Z,1031.66
2023-01-23T10:49:55.881Z,1031.64
2023-01-23T10:50:55.864Z,1031.68
2023-01-23T10:51:56.800Z,1031.70
2023-01-23T10:52:57.344Z,1031.70
2023-01-23T10:53:57.931Z,1031.73
2023-01-23T10:54:57.331Z,1031.72
2023-01-23T10:55:56.766Z,1031.75
2023-01-23T10:56:58.350Z,1031.72
2023-01-23T10:57:55.751Z,1031.70
2023-01-23T10:58:57.329Z,1031.71
2023-01-23T10:59:57.378Z,1031.68
2023-01-23T11:00:57.494Z,1031.68
2023-01-23T11:01:57.877Z,1031.63
2023-01-23T11:02:56.960Z,1031.65
2023-01-23T11:03:55.729Z,1031.65
2023-01-23T11:04:57.356Z,1031.64
2023-01-23T11:05:57.370Z,1031.62
2023-01-23T11:07:57.413Z,1031.68
2023-01-23T11:08:57.336Z,1031.70
2023-01-23T11:09:57.366Z,1031.67
2023-01-23T11:10:56.784Z,1031.66
2023-01-23T11:11:55.700Z,1031.66
2023-01-23T11:12:56.745Z,1031.60
2023-01-23T11:13:57.371Z,1031.58
2023-01-23T11:14:57.378Z,1031.56
2023-01-23T11:15:56.719Z,1031.53
2023-01-23T11:16:56.857Z,1031.56
2023-01-23T11:17:57.356Z,1031.54
2023-01-23T11:18:57.424Z,1031.58
2023-01-23T11:19:57.364Z,1031.58
2023-01-23T11:20:57.408Z,1031.60
2023-01-23T11:22:57.361Z,1031.62
2023-01-23T11:23:57.361Z,1031.67
2023-01-23T11:24:57.924Z,1031.67
2023-01-23T11:25:56.866Z,1031.60
2023-01-23T11:26:56.673Z,1031.57
2023-01-23T11:27:57.396Z,1031.61
2023-01-23T11:28:57.379Z,1031.61
2023-01-23T11:29:57.369Z,1031.62
2023-01-23T11:31:12.250Z,1031.59
2023-01-23T11:31:57.461Z,1031.61
2023-01-23T11:32:55.724Z,1031.60
2023-01-23T11:33:57.383Z,1031.60
2023-01-23T11:34:57.402Z,1031.59
2023-01-23T11:35:57.386Z,1031.60
2023-01-23T11:36:57.371Z,1031.57
2023-01-23T11:37:56.581Z,1031.51
2023-01-23T11:38:57.417Z,1031.52
2023-01-23T11:39:55.578Z,1031.51
2023-01-23T11:40:55.572Z,1031.51
2023-01-23T11:41:57.382Z,1031.52
2023-01-23T11:42:55.562Z,1031.55
2023-01-23T11:43:55.591Z,1031.54
2023-01-23T11:44:55.575Z,1031.53
2023-01-23T11:45:57.559Z,1031.55
2023-01-23T11:46:57.396Z,1031.57
2023-01-23T11:47:57.390Z,1031.55
2023-01-23T11:48:57.465Z,1031.57
2023-01-23T11:49:57.401Z,1031.54
2023-01-23T11:50:57.458Z,1031.52
2023-01-23T11:51:56.937Z,1031.53
2023-01-23T11:52:57.489Z,1031.53
2023-01-23T11:53:55.553Z,1031.52
2023-01-23T11:54:55.529Z,1031.51
2023-01-23T11:55:55.539Z,1031.51
2023-01-23T11:56:57.393Z,1031.54
2023-01-23T11:57:58.173Z,1031.56
2023-01-23T11:58:57.397Z,1031.56
2023-01-23T11:59:56.508Z,1031.58
2023-01-23T12:00:57.401Z,1031.58
2023-01-23T12:02:03.090Z,1031.57
2023-01-23T12:02:57.472Z,1031.52
2023-01-23T12:03:57.438Z,1031.52
2023-01-23T12:04:56.595Z,1031.52
2023-01-23T12:06:09.660Z,1031.52
2023-01-23T12:06:55.518Z,1031.52
2023-01-23T12:07:56.915Z,1031.51
2023-01-23T12:08:55.462Z,1031.51
2023-01-23T12:10:02.421Z,1031.51
2023-01-23T12:10:57.433Z,1031.55
2023-01-23T12:11:58.132Z,1031.56
2023-01-23T12:12:57.438Z,1031.53
2023-01-23T12:13:55.599Z,1031.53
2023-01-23T12:14:55.695Z,1031.56
2023-01-23T12:15:55.466Z,1031.57
2023-01-23T12:16:55.449Z,1031.55
2023-01-23T12:17:58.231Z,1031.56
2023-01-23T12:18:55.504Z,1031.55
2023-01-23T12:19:55.605Z,1031.55
2023-01-23T12:20:55.523Z,1031.54
2023-01-23T12:21:55.405Z,1031.53
2023-01-23T12:22:56.917Z,1031.53
2023-01-23T12:23:55.427Z,1031.58
2023-01-23T12:24:56.407Z,1031.58
2023-01-23T12:25:56.908Z,1031.56
2023-01-23T12:26:58.537Z,1031.58
2023-01-23T12:27:56.926Z,1031.61
2023-01-23T12:28:56.916Z,1031.59
2023-01-23T12:29:55.404Z,1031.60
2023-01-23T12:30:55.504Z,1031.61
2023-01-23T12:31:55.441Z,1031.61
2023-01-23T12:32:55.359Z,1031.61
2023-01-23T12:33:56.933Z,1031.59
2023-01-23T12:34:56.969Z,1031.60
2023-01-23T12:35:55.404Z,1031.61
2023-01-23T12:37:10.018Z,1031.59
2023-01-23T12:37:55.369Z,1031.56
2023-01-23T12:38:56.939Z,1031.59
2023-01-23T12:39:55.345Z,1031.63
2023-01-23T12:40:55.330Z,1031.67
2023-01-23T12:41:55.324Z,1031.68
2023-01-23T12:42:55.321Z,1031.71
2023-01-23T12:43:56.442Z,1031.72
2023-01-23T12:44:57.562Z,1031.73
2023-01-23T12:45:55.311Z,1031.71
2023-01-23T12:46:55.430Z,1031.73
2023-01-23T12:47:56.963Z,1031.74
2023-01-23T12:48:57.930Z,1031.74
2023-01-23T12:49:55.287Z,1031.75
2023-01-23T12:50:56.513Z,1031.72
2023-01-23T12:51:57.009Z,1031.73
2023-01-23T12:52:56.925Z,1031.70
2023-01-23T12:53:57.482Z,1031.72
2023-01-23T12:54:56.508Z,1031.72
2023-01-23T12:55:56.966Z,1031.72
2023-01-23T12:56:56.940Z,1031.69
2023-01-23T12:58:08.044Z,1031.71
2023-01-23T12:58:57.183Z,1031.68
2023-01-23T12:59:56.945Z,1031.67
2023-01-23T13:00:55.282Z,1031.67
2023-01-23T13:01:55.271Z,1031.70
2023-01-23T13:02:56.663Z,1031.68
2023-01-23T13:03:56.980Z,1031.68
2023-01-23T13:04:57.000Z,1031.70
2023-01-23T13:05:55.976Z,1031.69
2023-01-23T13:06:55.272Z,1031.69
2023-01-23T13:07:55.334Z,1031.67
2023-01-23T13:09:05.311Z,1031.70
2023-01-23T13:09:55.214Z,1031.69
2023-01-23T13:10:56.971Z,1031.71
2023-01-23T13:11:56.972Z,1031.71
2023-01-23T13:12:57.486Z,1031.69
2023-01-23T13:13:55.221Z,1031.68
2023-01-23T13:15:12.778Z,1031.71
2023-01-23T13:15:56.971Z,1031.71
2023-01-23T13:16:56.511Z,1031.70
2023-01-23T13:17:56.946Z,1031.68
2023-01-23T13:18:56.980Z,1031.67
2023-01-23T13:19:55.173Z,1031.69
2023-01-23T13:20:56.966Z,1031.66
2023-01-23T13:21:56.983Z,1031.68
2023-01-23T13:22:56.170Z,1031.66
2023-01-23T13:23:55.274Z,1031.65
2023-01-23T13:24:57.000Z,1031.65
2023-01-23T13:25:55.279Z,1031.62
2023-01-23T13:26:57.997Z,1031.61
2023-01-23T13:27:57.011Z,1031.64
2023-01-23T13:28:55.157Z,1031.69
2023-01-23T13:29:56.997Z,1031.67
2023-01-23T13:30:56.153Z,1031.69
2023-01-23T13:31:56.580Z,1031.70
2023-01-23T13:32:55.179Z,1031.74
2023-01-23T13:33:58.751Z,1031.73
2023-01-23T13:34:56.174Z,1031.75
2023-01-23T13:35:56.487Z,1031.76
2023-01-23T13:36:56.316Z,1031.72
2023-01-23T13:37:56.119Z,1031.77
2023-01-23T13:38:56.980Z,1031.77
2023-01-23T13:40:05.529Z,1031.73
2023-01-23T13:40:56.475Z,1031.80
2023-01-23T13:41:55.106Z,1031.84
2023-01-23T13:42:56.972Z,1031.85
2023-01-23T13:43:56.996Z,1031.86
2023-01-23T13:44:57.008Z,1031.86
2023-01-23T13:45:57.532Z,1031.88
2023-01-23T13:46:56.516Z,1031.90
2023-01-23T13:47:55.111Z,1031.86
2023-01-23T13:48:55.064Z,1031.88
2023-01-23T13:49:56.055Z,1031.86
2023-01-23T13:50:56.064Z,1031.84
2023-01-23T13:51:56.047Z,1031.87
2023-01-23T13:52:56.590Z,1031.82
2023-01-23T13:53:55.338Z,1031.88
2023-01-23T13:54:56.992Z,1031.91
2023-01-23T13:55:55.141Z,1031.92
2023-01-23T13:56:57.038Z,1031.95
2023-01-23T13:57:57.051Z,1031.96
2023-01-23T13:58:57.033Z,1031.97
2023-01-23T13:59:56.010Z,1032.01
2023-01-23T14:00:57.002Z,1032.01
2023-01-23T14:01:56.518Z,1032.04
2023-01-23T14:02:56.005Z,1032.08
2023-01-23T14:03:55.993Z,1032.05
2023-01-23T14:04:56.548Z,1032.05
2023-01-23T14:05:55.999Z,1032.04
2023-01-23T14:06:56.539Z,1032.00
2023-01-23T14:07:56.513Z,1032.07
2023-01-23T14:08:56.520Z,1032.06
2023-01-23T14:09:56.532Z,1032.06
2023-01-23T14:10:56.521Z,1032.07
2023-01-23T14:11:56.638Z,1032.08
2023-01-23T14:12:56.492Z,1032.11
2023-01-23T14:13:56.493Z,1032.05
2023-01-23T14:14:56.519Z,1032.07
2023-01-23T14:15:56.512Z,1032.08
2023-01-23T14:16:55.087Z,1032.09
2023-01-23T14:17:56.622Z,1032.05
2023-01-23T14:18:56.626Z,1032.07
2023-01-23T14:19:54.957Z,1032.03
2023-01-23T14:20:54.973Z,1032.05
2023-01-23T14:21:57.077Z,1032.04
2023-01-23T14:22:56.592Z,1032.01
2023-01-23T14:23:54.923Z,1032.01
2023-01-23T14:24:56.510Z,1032.01
2023-01-23T14:25:56.522Z,1031.99
2023-01-23T14:26:57.157Z,1031.97
2023-01-23T14:27:56.639Z,1031.97
2023-01-23T14:28:56.527Z,1031.92
2023-01-23T14:29:56.537Z,1031.91
2023-01-23T14:30:56.595Z,1031.92
2023-01-23T14:31:56.571Z,1031.91
2023-01-23T14:32:56.519Z,1031.92
2023-01-23T14:34:01.892Z,1031.93
2023-01-23T14:34:56.516Z,1031.95
2023-01-23T14:35:56.538Z,1031.94
2023-01-23T14:36:56.541Z,1031.94
2023-01-23T14:37:56.531Z,1031.96
2023-01-23T14:38:56.515Z,1031.94
2023-01-23T14:39:57.978Z,1031.91
2023-01-23T14:40:58.934Z,1031.93
2023-01-23T14:41:57.075Z,1031.95
2023-01-23T14:42:56.818Z,1031.96
2023-01-23T14:43:56.644Z,1031.95
2023-01-23T14:44:56.549Z,1031.94
2023-01-23T14:45:56.562Z,1031.95
2023-01-23T14:46:54.825Z,1031.94
2023-01-23T14:48:05.036Z,1031.91
2023-01-23T14:48:54.819Z,1031.91
2023-01-23T14:49:56.526Z,1031.95
2023-01-23T14:50:54.804Z,1031.92
2023-01-23T14:51:54.798Z,1031.93
2023-01-23T14:52:56.057Z,1031.90
2023-01-23T14:53:56.550Z,1031.92
2023-01-23T14:54:55.444Z,1031.93
2023-01-23T14:55:56.555Z,1031.89
2023-01-23T14:56:55.774Z,1031.95
2023-01-23T14:57:56.565Z,1031.89
2023-01-23T14:58:56.530Z,1031.89
2023-01-23T14:59:56.753Z,1031.91
2023-01-23T15:00:56.588Z,1031.92
2023-01-23T15:01:56.539Z,1031.92
2023-01-23T15:02:56.768Z,1031.93
2023-01-23T15:03:56.558Z,1031.94
2023-01-23T15:04:55.727Z,1031.95
2023-01-23T15:05:56.077Z,1031.99
2023-01-23T15:06:55.730Z,1031.99
2023-01-23T15:07:56.210Z,1032.00
2023-01-23T15:08:55.727Z,1032.00
2023-01-23T15:09:56.553Z,1031.98
2023-01-23T15:10:54.710Z,1032.02
2023-01-23T15:11:55.727Z,1032.01
2023-01-23T15:12:55.745Z,1032.04
2023-01-23T15:13:55.722Z,1032.05
2023-01-23T15:14:55.740Z,1032.02
2023-01-23T15:15:56.679Z,1032.03
2023-01-23T15:16:55.901Z,1032.05
2023-01-23T15:17:54.701Z,1032.03
2023-01-23T15:18:54.700Z,1032.00
2023-01-23T15:19:54.686Z,1032.03
2023-01-23T15:20:56.579Z,1032.03
2023-01-23T15:21:54.680Z,1032.05
2023-01-23T15:22:54.673Z,1032.03
2023-01-23T15:23:54.695Z,1032.02
2023-01-23T15:24:55.689Z,1032.04
2023-01-23T15:26:04.513Z,1031.99
2023-01-23T15:26:55.687Z,1032.03
2023-01-23T15:27:56.578Z,1032.03
2023-01-23T15:28:54.654Z,1032.02
2023-01-23T15:29:56.561Z,1031.97
2023-01-23T15:30:56.698Z,1031.98
2023-01-23T15:31:54.911Z,1031.99
2023-01-23T15:32:55.625Z,1031.95
2023-01-23T15:33:56.627Z,1031.92
2023-01-23T15:34:55.636Z,1031.87
2023-01-23T15:35:56.611Z,1031.90
2023-01-23T15:36:55.608Z,1031.82
2023-01-23T15:37:56.565Z,1031.83
2023-01-23T15:38:56.078Z,1031.83
2023-01-23T15:39:55.654Z,1031.83
2023-01-23T15:40:56.090Z,1031.83
2023-01-23T15:41:55.687Z,1031.83
2023-01-23T15:42:55.578Z,1031.83
2023-01-23T15:43:55.574Z,1031.82
2023-01-23T15:44:55.608Z,1031.83
2023-01-23T15:45:56.593Z,1031.82
2023-01-23T15:46:55.567Z,1031.82
2023-01-23T15:47:55.663Z,1031.75
2023-01-23T15:48:55.565Z,1031.80
2023-01-23T15:49:55.591Z,1031.78
2023-01-23T15:50:55.592Z,1031.75
2023-01-23T15:51:55.543Z,1031.76
2023-01-23T15:52:55.545Z,1031.73
2023-01-23T15:53:54.529Z,1031.71
2023-01-23T15:54:55.531Z,1031.74
2023-01-23T15:55:56.089Z,1031.73
2023-01-23T15:57:06.477Z,1031.77
2023-01-23T15:57:56.129Z,1031.78
2023-01-23T15:58:56.098Z,1031.76
2023-01-23T15:59:56.089Z,1031.75
2023-01-23T16:00:56.098Z,1031.75
2023-01-23T16:13:13.248Z,1031.69
2023-01-23T16:14:13.108Z,1031.71
2023-01-23T16:15:13.159Z,1031.74
2023-01-23T16:16:13.135Z,1031.74
2023-01-23T16:17:17.020Z,1031.76
2023-01-23T16:18:13.118Z,1031.76
2023-01-23T16:19:12.247Z,1031.79
2023-01-23T16:20:13.129Z,1031.78
2023-01-23T16:21:12.213Z,1031.79
2023-01-23T16:22:11.209Z,1031.82
2023-01-23T16:23:15.464Z,1031.77
2023-01-23T16:24:11.269Z,1031.79
2023-01-23T16:25:12.629Z,1031.83
2023-01-23T16:26:11.187Z,1031.82
2023-01-23T16:27:11.190Z,1031.81
2023-01-23T16:28:13.124Z,1031.83
2023-01-23T16:29:14.158Z,1031.85
2023-01-23T16:30:13.124Z,1031.82
2023-01-23T16:31:13.167Z,1031.86
2023-01-23T16:32:13.361Z,1031.83
2023-01-23T16:33:13.154Z,1031.82
2023-01-23T16:34:13.166Z,1031.81
2023-01-23T16:35:13.150Z,1031.78
2023-01-23T16:36:12.652Z,1031.79
2023-01-23T16:37:12.131Z,1031.79
2023-01-23T16:38:12.625Z,1031.82
2023-01-23T16:39:11.124Z,1031.80
2023-01-23T16:40:12.659Z,1031.78
2023-01-23T16:41:12.624Z,1031.79
2023-01-23T16:42:12.664Z,1031.82